sensor_id;sensor_type;location;lat;lon;timestamp;pressure;altitude;pressure_sealevel;temperature;humidity
71793;BME280;59639;51.170;6.456;2022-07-29T00:00:08;100994.13;;;20.50;40.88
71793;BME280;59639;51.170;6.456;2022-07-29T00:02:34;100995.16;;;20.62;40.81
71793;BME280;59639;51.170;6.456;2022-07-29T00:05:00;100987.72;;;20.51;40.88
71793;BME280;59639;51.170;6.456;2022-07-29T00:07:25;100977.56;;;20.47;41.38
71793;BME280;59639;51.170;6.456;2022-07-29T00:09:51;100982.72;;;20.35;41.63
71793;BME280;59639;51.170;6.456;2022-07-29T00:12:16;100968.91;;;20.51;41.13
71793;BME280;59639;51.170;6.456;2022-07-29T00:14:42;100970.50;;;20.39;41.26
71793;BME280;59639;51.170;6.456;2022-07-29T00:17:08;100969.28;;;20.42;41.18
71793;BME280;59639;51.170;6.456;2022-07-29T00:19:33;100965.78;;;20.41;41.28
71793;BME280;59639;51.170;6.456;2022-07-29T00:21:59;100968.25;;;20.43;41.25
71793;BME280;59639;51.170;6.456;2022-07-29T00:24:25;100960.38;;;20.48;41.11
71793;BME280;59639;51.170;6.456;2022-07-29T00:26:50;100960.41;;;20.41;40.92
71793;BME280;59639;51.170;6.456;2022-07-29T00:29:15;100957.28;;;20.44;41.27
71793;BME280;59639;51.170;6.456;2022-07-29T00:31:41;100960.00;;;20.51;40.80
71793;BME280;59639;51.170;6.456;2022-07-29T00:34:06;100949.63;;;20.35;41.41
71793;BME280;59639;51.170;6.456;2022-07-29T00:36:51;100950.47;;;20.48;41.22
71793;BME280;59639;51.170;6.456;2022-07-29T00:39:17;100944.25;;;20.48;41.12
71793;BME280;59639;51.170;6.456;2022-07-29T00:41:42;100947.56;;;20.43;41.18
71793;BME280;59639;51.170;6.456;2022-07-29T00:44:08;100943.84;;;20.31;41.56
71793;BME280;59639;51.170;6.456;2022-07-29T00:46:33;100938.63;;;20.30;41.60
71793;BME280;59639;51.170;6.456;2022-07-29T00:48:58;100937.66;;;20.37;41.43
71793;BME280;59639;51.170;6.456;2022-07-29T00:51:25;100939.50;;;20.37;41.58
71793;BME280;59639;51.170;6.456;2022-07-29T00:53:51;100937.03;;;20.35;41.46
71793;BME280;59639;51.170;6.456;2022-07-29T00:56:18;100932.63;;;20.21;41.82
71793;BME280;59639;51.170;6.456;2022-07-29T00:58:44;100933.13;;;20.51;41.09
71793;BME280;59639;51.170;6.456;2022-07-29T01:01:11;100927.25;;;20.14;41.90
71793;BME280;59639;51.170;6.456;2022-07-29T01:03:36;100923.78;;;20.34;41.72
71793;BME280;59639;51.170;6.456;2022-07-29T01:06:02;100926.00;;;20.10;42.01
71793;BME280;59639;51.170;6.456;2022-07-29T01:08:27;100924.75;;;20.19;41.80
71793;BME280;59639;51.170;6.456;2022-07-29T01:10:53;100928.47;;;20.05;41.87
71793;BME280;59639;51.170;6.456;2022-07-29T01:13:20;100923.34;;;20.30;41.62
71793;BME280;59639;51.170;6.456;2022-07-29T01:15:54;100924.97;;;20.25;41.77
71793;BME280;59639;51.170;6.456;2022-07-29T01:18:33;100924.34;;;20.23;41.43
71793;BME280;59639;51.170;6.456;2022-07-29T01:24:11;100926.22;;;20.22;41.56
71793;BME280;59639;51.170;6.456;2022-07-29T01:32:01;100925.78;;;20.18;41.98
71793;BME280;59639;51.170;6.456;2022-07-29T01:34:58;100922.13;;;20.33;41.15
71793;BME280;59639;51.170;6.456;2022-07-29T01:37:39;100930.75;;;20.15;41.58
71793;BME280;59639;51.170;6.456;2022-07-29T01:40:14;100946.66;;;20.23;41.72
71793;BME280;59639;51.170;6.456;2022-07-29T01:42:49;100957.69;;;20.35;41.13
71793;BME280;59639;51.170;6.456;2022-07-29T01:45:20;100968.25;;;20.49;40.82
71793;BME280;59639;51.170;6.456;2022-07-29T01:47:56;100969.94;;;20.57;40.69
71793;BME280;59639;51.170;6.456;2022-07-29T01:50:30;100969.06;;;20.43;41.12
71793;BME280;59639;51.170;6.456;2022-07-29T01:53:00;100961.00;;;20.43;41.50
71793;BME280;59639;51.170;6.456;2022-07-29T01:55:34;100951.66;;;20.26;41.66
71793;BME280;59639;51.170;6.456;2022-07-29T01:58:00;100955.13;;;20.13;42.13
71793;BME280;59639;51.170;6.456;2022-07-29T02:00:29;100961.41;;;20.34;41.74
71793;BME280;59639;51.170;6.456;2022-07-29T02:02:58;100958.31;;;20.37;41.30
71793;BME280;59639;51.170;6.456;2022-07-29T02:05:27;100963.25;;;20.33;41.67
71793;BME280;59639;51.170;6.456;2022-07-29T02:07:55;100950.19;;;20.24;41.62
71793;BME280;59639;51.170;6.456;2022-07-29T02:10:25;100945.81;;;20.09;42.19
71793;BME280;59639;51.170;6.456;2022-07-29T02:12:53;100941.06;;;20.05;41.99
71793;BME280;59639;51.170;6.456;2022-07-29T02:15:19;100946.66;;;20.10;41.84
71793;BME280;59639;51.170;6.456;2022-07-29T02:17:57;100954.69;;;19.97;42.19
71793;BME280;59639;51.170;6.456;2022-07-29T02:20:25;100952.81;;;20.04;41.86
71793;BME280;59639;51.170;6.456;2022-07-29T02:22:52;100954.09;;;20.14;41.81
71793;BME280;59639;51.170;6.456;2022-07-29T02:25:21;100936.09;;;20.02;41.81
71793;BME280;59639;51.170;6.456;2022-07-29T02:27:48;100927.53;;;19.72;42.36
71793;BME280;59639;51.170;6.456;2022-07-29T02:30:15;100922.84;;;19.87;42.10
71793;BME280;59639;51.170;6.456;2022-07-29T02:32:42;100927.78;;;19.90;42.25
71793;BME280;59639;51.170;6.456;2022-07-29T02:35:09;100941.59;;;19.81;42.88
71793;BME280;59639;51.170;6.456;2022-07-29T02:37:36;100944.06;;;19.75;43.04
71793;BME280;59639;51.170;6.456;2022-07-29T02:40:03;100946.72;;;19.62;43.66
71793;BME280;59639;51.170;6.456;2022-07-29T02:42:29;100950.13;;;19.50;44.49
71793;BME280;59639;51.170;6.456;2022-07-29T02:44:57;100951.19;;;19.55;44.71
71793;BME280;59639;51.170;6.456;2022-07-29T02:47:38;100960.56;;;19.66;44.16
71793;BME280;59639;51.170;6.456;2022-07-29T02:50:11;100974.16;;;19.64;44.88
71793;BME280;59639;51.170;6.456;2022-07-29T02:52:42;100979.47;;;19.51;45.81
71793;BME280;59639;51.170;6.456;2022-07-29T02:55:19;100983.47;;;19.34;46.35
71793;BME280;59639;51.170;6.456;2022-07-29T02:57:53;100985.72;;;19.30;46.92
71793;BME280;59639;51.170;6.456;2022-07-29T03:00:20;101001.97;;;19.50;48.08
71793;BME280;59639;51.170;6.456;2022-07-29T03:02:50;100998.03;;;19.46;48.98
71793;BME280;59639;51.170;6.456;2022-07-29T03:05:19;100987.03;;;19.41;50.75
71793;BME280;59639;51.170;6.456;2022-07-29T03:07:47;100980.78;;;19.34;51.72
71793;BME280;59639;51.170;6.456;2022-07-29T03:10:13;100981.91;;;19.18;52.76
71793;BME280;59639;51.170;6.456;2022-07-29T03:12:39;100982.91;;;19.11;52.89
71793;BME280;59639;51.170;6.456;2022-07-29T03:15:06;100971.84;;;18.92;53.73
71793;BME280;59639;51.170;6.456;2022-07-29T03:17:31;100974.72;;;18.70;54.49
71793;BME280;59639;51.170;6.456;2022-07-29T03:19:58;100964.31;;;18.18;56.05
71793;BME280;59639;51.170;6.456;2022-07-29T03:22:24;100954.44;;;18.03;57.13
71793;BME280;59639;51.170;6.456;2022-07-29T03:24:50;100951.34;;;17.85;57.74
71793;BME280;59639;51.170;6.456;2022-07-29T03:27:15;100955.19;;;18.12;58.45
71793;BME280;59639;51.170;6.456;2022-07-29T03:29:41;100961.63;;;17.82;57.32
71793;BME280;59639;51.170;6.456;2022-07-29T03:32:07;100963.84;;;17.78;57.74
71793;BME280;59639;51.170;6.456;2022-07-29T03:34:32;100963.09;;;17.70;58.30
71793;BME280;59639;51.170;6.456;2022-07-29T03:36:57;100952.69;;;17.60;59.14
71793;BME280;59639;51.170;6.456;2022-07-29T03:39:25;100953.75;;;17.80;58.08
71793;BME280;59639;51.170;6.456;2022-07-29T03:41:55;100956.59;;;17.93;59.83
71793;BME280;59639;51.170;6.456;2022-07-29T03:44:22;100945.44;;;17.90;58.01
71793;BME280;59639;51.170;6.456;2022-07-29T03:46:50;100935.91;;;18.02;57.44
71793;BME280;59639;51.170;6.456;2022-07-29T03:49:18;100928.97;;;18.08;60.70
71793;BME280;59639;51.170;6.456;2022-07-29T03:51:44;100936.78;;;17.58;60.04
71793;BME280;59639;51.170;6.456;2022-07-29T03:54:10;100950.38;;;17.57;60.10
71793;BME280;59639;51.170;6.456;2022-07-29T03:56:39;100942.53;;;17.70;61.20
71793;BME280;59639;51.170;6.456;2022-07-29T03:59:06;100939.81;;;17.85;62.17
71793;BME280;59639;51.170;6.456;2022-07-29T04:01:33;100949.72;;;17.70;60.66
71793;BME280;59639;51.170;6.456;2022-07-29T04:04:00;100946.31;;;17.76;60.23
71793;BME280;59639;51.170;6.456;2022-07-29T04:06:26;100941.31;;;17.87;61.68
71793;BME280;59639;51.170;6.456;2022-07-29T04:08:51;100964.09;;;17.83;61.92
71793;BME280;59639;51.170;6.456;2022-07-29T04:11:17;100955.34;;;17.75;61.48
71793;BME280;59639;51.170;6.456;2022-07-29T04:13:42;100970.06;;;18.00;61.76
71793;BME280;59639;51.170;6.456;2022-07-29T04:16:08;100973.09;;;17.61;62.62
71793;BME280;59639;51.170;6.456;2022-07-29T04:18:33;100974.63;;;17.85;62.72
71793;BME280;59639;51.170;6.456;2022-07-29T04:20:59;100979.31;;;17.97;63.64
71793;BME280;59639;51.170;6.456;2022-07-29T04:23:26;100967.16;;;18.16;61.55
71793;BME280;59639;51.170;6.456;2022-07-29T04:25:52;100985.34;;;17.70;62.85
71793;BME280;59639;51.170;6.456;2022-07-29T04:28:17;100981.94;;;17.61;62.15
71793;BME280;59639;51.170;6.456;2022-07-29T04:30:43;100974.00;;;17.68;63.29
71793;BME280;59639;51.170;6.456;2022-07-29T04:33:08;100967.56;;;17.98;64.58
71793;BME280;59639;51.170;6.456;2022-07-29T04:35:36;100984.72;;;17.68;63.96
71793;BME280;59639;51.170;6.456;2022-07-29T04:38:01;100985.06;;;17.80;65.48
71793;BME280;59639;51.170;6.456;2022-07-29T04:40:28;100975.69;;;18.05;63.81
71793;BME280;59639;51.170;6.456;2022-07-29T04:42:53;100963.50;;;18.02;64.50
71793;BME280;59639;51.170;6.456;2022-07-29T04:45:18;100961.28;;;18.06;63.96
71793;BME280;59639;51.170;6.456;2022-07-29T04:47:44;100953.50;;;18.11;64.51
71793;BME280;59639;51.170;6.456;2022-07-29T04:50:09;100954.41;;;17.82;63.73
71793;BME280;59639;51.170;6.456;2022-07-29T04:52:35;100942.50;;;17.85;62.39
71793;BME280;59639;51.170;6.456;2022-07-29T04:55:01;100939.94;;;17.47;64.41
71793;BME280;59639;51.170;6.456;2022-07-29T04:57:27;100933.72;;;17.91;63.62
71793;BME280;59639;51.170;6.456;2022-07-29T04:59:52;100931.66;;;18.08;62.78
71793;BME280;59639;51.170;6.456;2022-07-29T05:02:17;100938.22;;;17.90;64.58
71793;BME280;59639;51.170;6.456;2022-07-29T05:04:43;100944.47;;;17.61;64.13
71793;BME280;59639;51.170;6.456;2022-07-29T05:07:08;100956.00;;;17.47;65.62
71793;BME280;59639;51.170;6.456;2022-07-29T05:09:34;100958.84;;;17.16;65.08
71793;BME280;59639;51.170;6.456;2022-07-29T05:11:59;100960.78;;;17.52;64.81
71793;BME280;59639;51.170;6.456;2022-07-29T05:14:25;100947.03;;;17.26;65.57
71793;BME280;59639;51.170;6.456;2022-07-29T05:16:50;100952.69;;;17.60;64.00
71793;BME280;59639;51.170;6.456;2022-07-29T05:19:17;100956.28;;;17.67;64.06
71793;BME280;59639;51.170;6.456;2022-07-29T05:21:44;100949.81;;;17.76;63.18
71793;BME280;59639;51.170;6.456;2022-07-29T05:24:09;100947.22;;;17.83;64.99
71793;BME280;59639;51.170;6.456;2022-07-29T05:26:35;100943.72;;;17.82;64.51
71793;BME280;59639;51.170;6.456;2022-07-29T05:29:00;100947.19;;;17.97;63.72
71793;BME280;59639;51.170;6.456;2022-07-29T05:31:25;100952.56;;;17.83;64.35
71793;BME280;59639;51.170;6.456;2022-07-29T05:33:51;100961.97;;;17.79;64.62
71793;BME280;59639;51.170;6.456;2022-07-29T05:36:17;100956.31;;;17.88;65.00
71793;BME280;59639;51.170;6.456;2022-07-29T05:38:42;100955.88;;;17.85;64.79
71793;BME280;59639;51.170;6.456;2022-07-29T05:41:07;100968.63;;;17.83;65.30
71793;BME280;59639;51.170;6.456;2022-07-29T05:43:33;100965.31;;;17.66;65.66
71793;BME280;59639;51.170;6.456;2022-07-29T05:45:58;100975.91;;;17.89;64.40
71793;BME280;59639;51.170;6.456;2022-07-29T05:48:24;100979.63;;;17.88;64.99
71793;BME280;59639;51.170;6.456;2022-07-29T05:50:49;100985.78;;;17.88;64.54
71793;BME280;59639;51.170;6.456;2022-07-29T05:53:14;100989.84;;;17.84;65.15
71793;BME280;59639;51.170;6.456;2022-07-29T05:55:41;100989.47;;;18.02;63.61
71793;BME280;59639;51.170;6.456;2022-07-29T05:58:06;100991.44;;;18.15;63.95
71793;BME280;59639;51.170;6.456;2022-07-29T06:00:32;101004.25;;;17.98;64.78
71793;BME280;59639;51.170;6.456;2022-07-29T06:02:57;101008.41;;;17.86;64.54
71793;BME280;59639;51.170;6.456;2022-07-29T06:05:23;101026.13;;;18.01;64.76
71793;BME280;59639;51.170;6.456;2022-07-29T06:07:48;101033.50;;;17.99;64.82
71793;BME280;59639;51.170;6.456;2022-07-29T06:10:13;101042.25;;;17.93;64.57
71793;BME280;59639;51.170;6.456;2022-07-29T06:12:39;101056.59;;;17.86;64.95
71793;BME280;59639;51.170;6.456;2022-07-29T06:15:05;101060.09;;;17.86;65.21
71793;BME280;59639;51.170;6.456;2022-07-29T06:17:30;101071.81;;;18.00;65.42
71793;BME280;59639;51.170;6.456;2022-07-29T06:19:56;101065.34;;;17.94;64.83
71793;BME280;59639;51.170;6.456;2022-07-29T06:22:21;101070.97;;;18.14;63.23
71793;BME280;59639;51.170;6.456;2022-07-29T06:24:46;101060.13;;;18.37;63.58
71793;BME280;59639;51.170;6.456;2022-07-29T06:27:12;101058.16;;;18.45;62.92
71793;BME280;59639;51.170;6.456;2022-07-29T06:29:37;101056.47;;;18.59;60.80
71793;BME280;59639;51.170;6.456;2022-07-29T06:32:03;101049.44;;;18.58;61.92
71793;BME280;59639;51.170;6.456;2022-07-29T06:34:29;101048.38;;;18.74;61.83
71793;BME280;59639;51.170;6.456;2022-07-29T06:36:54;101049.44;;;18.22;62.75
71793;BME280;59639;51.170;6.456;2022-07-29T06:39:20;101059.69;;;18.19;64.40
71793;BME280;59639;51.170;6.456;2022-07-29T06:41:49;101063.81;;;18.36;63.25
71793;BME280;59639;51.170;6.456;2022-07-29T06:44:16;101057.25;;;18.38;63.71
71793;BME280;59639;51.170;6.456;2022-07-29T06:46:42;101061.44;;;18.26;64.56
71793;BME280;59639;51.170;6.456;2022-07-29T06:49:08;101064.75;;;18.28;64.12
71793;BME280;59639;51.170;6.456;2022-07-29T06:51:34;101055.47;;;18.60;65.52
71793;BME280;59639;51.170;6.456;2022-07-29T06:53:59;101054.44;;;18.61;66.44
71793;BME280;59639;51.170;6.456;2022-07-29T06:56:26;101054.81;;;18.58;67.30
71793;BME280;59639;51.170;6.456;2022-07-29T06:58:51;101061.91;;;18.15;68.24
71793;BME280;59639;51.170;6.456;2022-07-29T07:01:16;101052.63;;;17.96;66.88
71793;BME280;59639;51.170;6.456;2022-07-29T07:03:42;101052.34;;;18.42;66.24
71793;BME280;59639;51.170;6.456;2022-07-29T07:06:07;101041.63;;;18.57;65.92
71793;BME280;59639;51.170;6.456;2022-07-29T07:08:33;101036.28;;;18.42;66.79
71793;BME280;59639;51.170;6.456;2022-07-29T07:10:58;101038.75;;;18.43;66.20
71793;BME280;59639;51.170;6.456;2022-07-29T07:13:24;101037.94;;;18.43;67.04
71793;BME280;59639;51.170;6.456;2022-07-29T07:15:49;101040.41;;;18.08;67.12
71793;BME280;59639;51.170;6.456;2022-07-29T07:18:15;101033.50;;;17.99;66.10
71793;BME280;59639;51.170;6.456;2022-07-29T07:20:41;101026.13;;;18.01;65.36
71793;BME280;59639;51.170;6.456;2022-07-29T07:23:07;101014.06;;;18.48;64.63
71793;BME280;59639;51.170;6.456;2022-07-29T07:25:33;101021.03;;;18.42;64.90
71793;BME280;59639;51.170;6.456;2022-07-29T07:27:58;101023.03;;;18.55;63.50
71793;BME280;59639;51.170;6.456;2022-07-29T07:30:24;101026.34;;;19.00;62.89
71793;BME280;59639;51.170;6.456;2022-07-29T07:32:49;101024.16;;;19.38;61.68
71793;BME280;59639;51.170;6.456;2022-07-29T07:35:15;101025.06;;;19.23;61.52
71793;BME280;59639;51.170;6.456;2022-07-29T07:37:40;101020.59;;;19.30;62.72
71793;BME280;59639;51.170;6.456;2022-07-29T07:40:07;101020.53;;;19.45;61.60
71793;BME280;59639;51.170;6.456;2022-07-29T07:42:33;101011.31;;;19.33;61.17
71793;BME280;59639;51.170;6.456;2022-07-29T07:44:59;101014.44;;;19.37;60.96
71793;BME280;59639;51.170;6.456;2022-07-29T07:47:24;101012.94;;;19.27;62.21
71793;BME280;59639;51.170;6.456;2022-07-29T07:49:50;101016.03;;;19.03;60.79
71793;BME280;59639;51.170;6.456;2022-07-29T07:52:16;101020.94;;;19.21;62.15
71793;BME280;59639;51.170;6.456;2022-07-29T07:54:42;101023.28;;;19.03;61.75
71793;BME280;59639;51.170;6.456;2022-07-29T07:57:09;101025.31;;;19.28;61.06
71793;BME280;59639;51.170;6.456;2022-07-29T07:59:34;101033.47;;;19.42;61.69
71793;BME280;59639;51.170;6.456;2022-07-29T08:02:00;101032.38;;;19.57;61.31
71793;BME280;59639;51.170;6.456;2022-07-29T08:04:26;101031.06;;;19.47;61.82
71793;BME280;59639;51.170;6.456;2022-07-29T08:06:52;101035.44;;;19.54;61.71
71793;BME280;59639;51.170;6.456;2022-07-29T08:09:22;101034.81;;;19.52;61.05
71793;BME280;59639;51.170;6.456;2022-07-29T08:11:47;101045.63;;;19.38;60.60
71793;BME280;59639;51.170;6.456;2022-07-29T08:14:13;101049.78;;;19.12;61.77
71793;BME280;59639;51.170;6.456;2022-07-29T08:16:39;101043.50;;;19.05;63.49
71793;BME280;59639;51.170;6.456;2022-07-29T08:19:05;101054.41;;;19.04;63.82
71793;BME280;59639;51.170;6.456;2022-07-29T08:21:31;101054.09;;;19.13;63.04
71793;BME280;59639;51.170;6.456;2022-07-29T08:23:56;101049.44;;;19.22;63.20
71793;BME280;59639;51.170;6.456;2022-07-29T08:26:42;101049.03;;;19.53;62.04
71793;BME280;59639;51.170;6.456;2022-07-29T08:29:08;101053.00;;;19.57;62.12
71793;BME280;59639;51.170;6.456;2022-07-29T08:31:35;101050.88;;;19.24;59.08
71793;BME280;59639;51.170;6.456;2022-07-29T08:34:00;101059.34;;;19.00;61.40
71793;BME280;59639;51.170;6.456;2022-07-29T08:36:26;101060.63;;;19.04;63.07
71793;BME280;59639;51.170;6.456;2022-07-29T08:38:52;101063.38;;;18.89;61.10
71793;BME280;59639;51.170;6.456;2022-07-29T08:41:20;101062.78;;;19.15;61.01
71793;BME280;59639;51.170;6.456;2022-07-29T08:43:47;101070.34;;;19.33;60.54
71793;BME280;59639;51.170;6.456;2022-07-29T08:46:13;101067.16;;;19.44;58.79
71793;BME280;59639;51.170;6.456;2022-07-29T08:48:40;101054.81;;;19.84;61.13
71793;BME280;59639;51.170;6.456;2022-07-29T08:51:07;101062.28;;;19.89;59.71
71793;BME280;59639;51.170;6.456;2022-07-29T08:53:33;101056.72;;;20.31;58.78
71793;BME280;59639;51.170;6.456;2022-07-29T08:55:59;101054.44;;;20.35;56.74
71793;BME280;59639;51.170;6.456;2022-07-29T08:58:31;101051.28;;;20.25;55.87
71793;BME280;59639;51.170;6.456;2022-07-29T09:00:57;101050.63;;;20.23;56.53
71793;BME280;59639;51.170;6.456;2022-07-29T09:03:29;101045.28;;;21.23;54.43
71793;BME280;59639;51.170;6.456;2022-07-29T09:05:55;101053.09;;;21.57;53.32
71793;BME280;59639;51.170;6.456;2022-07-29T09:08:21;101054.94;;;22.41;51.18
71793;BME280;59639;51.170;6.456;2022-07-29T09:10:46;101046.28;;;23.44;48.06
71793;BME280;59639;51.170;6.456;2022-07-29T09:13:12;101058.31;;;24.69;45.51
71793;BME280;59639;51.170;6.456;2022-07-29T09:15:37;101058.69;;;24.43;46.69
71793;BME280;59639;51.170;6.456;2022-07-29T09:18:03;101070.13;;;24.27;46.26
71793;BME280;59639;51.170;6.456;2022-07-29T09:20:28;101066.41;;;24.88;44.51
71793;BME280;59639;51.170;6.456;2022-07-29T09:23:13;101069.69;;;23.75;45.64
71793;BME280;59639;51.170;6.456;2022-07-29T09:25:39;101067.28;;;25.46;42.42
71793;BME280;59639;51.170;6.456;2022-07-29T09:30:32;101066.00;;;29.68;33.73
71793;BME280;59639;51.170;6.456;2022-07-29T09:33:00;101065.16;;;30.25;32.08
71793;BME280;59639;51.170;6.456;2022-07-29T09:35:29;101074.13;;;31.03;31.31
71793;BME280;59639;51.170;6.456;2022-07-29T09:37:56;101077.31;;;30.74;31.19
71793;BME280;59639;51.170;6.456;2022-07-29T09:40:27;101080.50;;;30.36;31.45
71793;BME280;59639;51.170;6.456;2022-07-29T09:42:53;101081.47;;;30.92;30.29
71793;BME280;59639;51.170;6.456;2022-07-29T09:45:27;101087.19;;;30.91;29.79
71793;BME280;59639;51.170;6.456;2022-07-29T09:47:53;101079.59;;;31.18;29.44
71793;BME280;59639;51.170;6.456;2022-07-29T09:50:19;101075.41;;;31.56;28.56
71793;BME280;59639;51.170;6.456;2022-07-29T09:52:50;101074.50;;;30.39;30.15
71793;BME280;59639;51.170;6.456;2022-07-29T09:55:17;101072.81;;;32.10;28.01
71793;BME280;59639;51.170;6.456;2022-07-29T09:57:44;101077.63;;;31.59;27.12
71793;BME280;59639;51.170;6.456;2022-07-29T10:00:15;101079.81;;;31.42;27.30
71793;BME280;59639;51.170;6.456;2022-07-29T10:02:42;101081.25;;;32.24;27.50
71793;BME280;59639;51.170;6.456;2022-07-29T10:05:24;101076.44;;;32.50;26.16
71793;BME280;59639;51.170;6.456;2022-07-29T10:07:51;101081.69;;;31.72;27.41
71793;BME280;59639;51.170;6.456;2022-07-29T10:10:30;101087.44;;;30.89;27.53
71793;BME280;59639;51.170;6.456;2022-07-29T10:12:58;101091.44;;;30.41;28.58
71793;BME280;59639;51.170;6.456;2022-07-29T10:15:26;101087.72;;;28.41;32.32
71793;BME280;59639;51.170;6.456;2022-07-29T10:17:52;101079.69;;;28.51;31.17
71793;BME280;59639;51.170;6.456;2022-07-29T10:20:20;101090.97;;;27.94;33.38
71793;BME280;59639;51.170;6.456;2022-07-29T10:22:46;101090.13;;;27.55;34.46
71793;BME280;59639;51.170;6.456;2022-07-29T10:25:14;101078.72;;;25.71;35.71
71793;BME280;59639;51.170;6.456;2022-07-29T10:27:39;101081.94;;;25.57;38.28
71793;BME280;59639;51.170;6.456;2022-07-29T10:30:06;101076.94;;;25.19;37.49
71793;BME280;59639;51.170;6.456;2022-07-29T10:35:24;101084.38;;;25.47;38.19
71793;BME280;59639;51.170;6.456;2022-07-29T10:44:17;101085.91;;;25.66;37.61
71793;BME280;59639;51.170;6.456;2022-07-29T10:46:43;101085.28;;;25.17;37.12
71793;BME280;59639;51.170;6.456;2022-07-29T10:49:13;101082.09;;;25.09;37.72
71793;BME280;59639;51.170;6.456;2022-07-29T11:05:04;101088.22;;;25.04;38.26
71793;BME280;59639;51.170;6.456;2022-07-29T11:07:32;101084.84;;;24.31;40.39
71793;BME280;59639;51.170;6.456;2022-07-29T11:15:02;101083.44;;;24.28;40.42
71793;BME280;59639;51.170;6.456;2022-07-29T11:17:29;101083.72;;;24.38;40.68
71793;BME280;59639;51.170;6.456;2022-07-29T11:22:57;101075.50;;;23.29;42.25
71793;BME280;59639;51.170;6.456;2022-07-29T11:25:23;101086.91;;;22.75;43.98
71793;BME280;59639;51.170;6.456;2022-07-29T11:27:49;101092.69;;;22.79;44.79
71793;BME280;59639;51.170;6.456;2022-07-29T11:30:14;101092.72;;;23.03;45.82
71793;BME280;59639;51.170;6.456;2022-07-29T11:32:42;101089.88;;;23.73;45.27
71793;BME280;59639;51.170;6.456;2022-07-29T11:37:39;101087.34;;;24.32;43.08
71793;BME280;59639;51.170;6.456;2022-07-29T11:47:47;101089.94;;;24.87;42.41
71793;BME280;59639;51.170;6.456;2022-07-29T11:50:16;101099.66;;;25.18;41.25
71793;BME280;59639;51.170;6.456;2022-07-29T11:52:44;101089.78;;;24.52;42.80
71793;BME280;59639;51.170;6.456;2022-07-29T11:55:18;101089.69;;;25.88;39.61
71793;BME280;59639;51.170;6.456;2022-07-29T11:57:49;101085.66;;;25.91;38.83
71793;BME280;59639;51.170;6.456;2022-07-29T12:00:28;101095.31;;;25.52;38.98
71793;BME280;59639;51.170;6.456;2022-07-29T12:02:55;101084.75;;;25.62;39.33
71793;BME280;59639;51.170;6.456;2022-07-29T12:05:21;101095.94;;;25.65;37.98
71793;BME280;59639;51.170;6.456;2022-07-29T12:07:55;101074.59;;;25.34;39.41
71793;BME280;59639;51.170;6.456;2022-07-29T12:10:20;101086.84;;;25.37;39.57
71793;BME280;59639;51.170;6.456;2022-07-29T12:12:51;101095.06;;;25.18;39.15
71793;BME280;59639;51.170;6.456;2022-07-29T12:15:18;101093.44;;;25.76;38.27
71793;BME280;59639;51.170;6.456;2022-07-29T12:17:46;101084.59;;;25.22;39.72
71793;BME280;59639;51.170;6.456;2022-07-29T12:20:12;101088.50;;;25.49;37.97
71793;BME280;59639;51.170;6.456;2022-07-29T12:22:42;101083.41;;;25.41;38.37
71793;BME280;59639;51.170;6.456;2022-07-29T12:25:11;101084.06;;;24.90;39.74
71793;BME280;59639;51.170;6.456;2022-07-29T12:27:39;101087.78;;;25.19;40.13
71793;BME280;59639;51.170;6.456;2022-07-29T12:30:07;101088.94;;;25.23;39.67
71793;BME280;59639;51.170;6.456;2022-07-29T12:32:34;101078.25;;;25.40;38.37
71793;BME280;59639;51.170;6.456;2022-07-29T12:35:06;101087.31;;;25.34;39.80
71793;BME280;59639;51.170;6.456;2022-07-29T12:37:37;101085.69;;;25.67;38.88
71793;BME280;59639;51.170;6.456;2022-07-29T12:40:05;101078.63;;;25.66;37.85
71793;BME280;59639;51.170;6.456;2022-07-29T12:42:31;101074.34;;;24.82;39.78
71793;BME280;59639;51.170;6.456;2022-07-29T12:44:56;101081.31;;;25.20;38.93
71793;BME280;59639;51.170;6.456;2022-07-29T12:47:22;101072.22;;;25.38;38.07
71793;BME280;59639;51.170;6.456;2022-07-29T12:49:48;101064.69;;;25.05;38.92
71793;BME280;59639;51.170;6.456;2022-07-29T12:52:45;101073.59;;;24.64;40.06
71793;BME280;59639;51.170;6.456;2022-07-29T12:55:11;101071.72;;;25.06;39.12
71793;BME280;59639;51.170;6.456;2022-07-29T13:00:12;101064.44;;;24.95;39.17
71793;BME280;59639;51.170;6.456;2022-07-29T13:02:40;101075.75;;;25.26;38.60
71793;BME280;59639;51.170;6.456;2022-07-29T13:05:07;101072.38;;;25.66;37.20
71793;BME280;59639;51.170;6.456;2022-07-29T13:07:34;101072.47;;;25.36;37.25
71793;BME280;59639;51.170;6.456;2022-07-29T13:10:13;101073.25;;;24.90;37.39
71793;BME280;59639;51.170;6.456;2022-07-29T13:15:27;101069.63;;;25.08;36.46
71793;BME280;59639;51.170;6.456;2022-07-29T13:17:53;101073.53;;;25.23;37.06
71793;BME280;59639;51.170;6.456;2022-07-29T13:20:18;101077.16;;;25.41;37.68
71793;BME280;59639;51.170;6.456;2022-07-29T13:22:47;101069.53;;;25.61;37.57
71793;BME280;59639;51.170;6.456;2022-07-29T13:25:13;101068.16;;;25.70;37.77
71793;BME280;59639;51.170;6.456;2022-07-29T13:27:39;101074.19;;;26.00;37.61
71793;BME280;59639;51.170;6.456;2022-07-29T13:30:09;101073.19;;;25.43;38.20
71793;BME280;59639;51.170;6.456;2022-07-29T13:32:35;101068.84;;;25.65;37.91
71793;BME280;59639;51.170;6.456;2022-07-29T13:35:04;101073.16;;;26.01;37.32
71793;BME280;59639;51.170;6.456;2022-07-29T13:37:30;101068.94;;;25.94;37.74
71793;BME280;59639;51.170;6.456;2022-07-29T13:39:58;101069.31;;;26.37;36.39
71793;BME280;59639;51.170;6.456;2022-07-29T13:42:24;101066.38;;;26.55;34.83
71793;BME280;59639;51.170;6.456;2022-07-29T13:44:50;101062.78;;;26.50;35.10
71793;BME280;59639;51.170;6.456;2022-07-29T13:47:19;101060.72;;;26.57;36.00